createdAt,value
2023-04-24T00:01:21.173Z,93455.72
2023-04-24T00:06:24.914Z,93456.69
2023-04-24T00:11:28.716Z,93421.44
2023-04-24T00:16:32.253Z,93486.59
2023-04-24T00:21:36.119Z,93500.63
2023-04-24T00:26:40.453Z,93405.69
2023-04-24T00:31:44.059Z,93456.84
2023-04-24T00:36:47.634Z,93406.25
2023-04-24T00:41:52.191Z,93380.53
2023-04-24T00:46:57.002Z,93461.41
2023-04-24T00:52:00.757Z,93475.50
2023-04-24T00:57:05.758Z,93401.50
2023-04-24T01:02:12.347Z,93464.84
2023-04-24T01:07:15.832Z,93395.34
2023-04-24T01:12:19.797Z,93394.59
2023-04-24T01:17:23.050Z,93371.47
2023-04-24T01:22:26.646Z,93433.72
2023-04-24T01:27:29.805Z,93376.34
2023-04-24T01:32:34.428Z,93348.25
2023-04-24T01:37:40.833Z,93344.66
2023-04-24T01:42:44.104Z,93448.47
2023-04-24T01:47:48.017Z,93421.91
2023-04-24T01:52:51.620Z,93375.59
2023-04-24T01:57:58.149Z,93379.09
2023-04-24T02:03:03.438Z,93333.66
2023-04-24T02:08:07.723Z,93409.25
2023-04-24T02:13:14.129Z,93415.63
2023-04-24T02:18:18.322Z,93338.56
2023-04-24T02:23:21.372Z,93369.06
2023-04-24T02:28:24.922Z,93397.63
2023-04-24T02:33:29.043Z,93407.06
2023-04-24T02:38:32.856Z,93396.53
2023-04-24T02:43:36.745Z,93399.50
2023-04-24T02:48:40.692Z,93347.09
2023-04-24T02:53:44.437Z,93376.47
2023-04-24T02:58:48.225Z,93331.66
2023-04-24T03:03:51.508Z,93366.97
2023-04-24T03:08:55.903Z,93321.41
2023-04-24T03:13:59.869Z,93351.00
2023-04-24T03:19:03.980Z,93375.94
2023-04-24T03:24:10.826Z,93367.59
2023-04-24T03:29:15.245Z,93336.19
2023-04-24T03:34:19.378Z,93378.19
2023-04-24T03:39:23.644Z,93316.91
2023-04-24T03:44:31.473Z,93338.84
2023-04-24T03:49:35.305Z,93378.66
2023-04-24T03:54:38.877Z,93362.34
2023-04-24T03:59:43.752Z,93312.44
2023-04-24T04:04:53.769Z,93319.44
2023-04-24T04:09:57.577Z,93343.31
2023-04-24T04:15:01.786Z,93357.16
2023-04-24T04:20:10.087Z,93326.78
2023-04-24T04:25:15.236Z,93359.19
2023-04-24T04:30:19.925Z,93372.34
2023-04-24T04:35:33.804Z,93281.84
2023-04-24T04:40:37.617Z,93322.50
2023-04-24T04:45:44.779Z,93316.16
2023-04-24T04:51:17.908Z,93259.78
2023-04-24T04:56:21.118Z,93369.53
2023-04-24T05:01:25.506Z,93340.03
2023-04-24T05:06:28.913Z,93372.56
2023-04-24T05:11:32.664Z,93388.94
2023-04-24T05:16:38.855Z,93387.81
2023-04-24T05:21:44.008Z,93424.28
2023-04-24T05:26:48.471Z,93372.03
2023-04-24T05:31:54.956Z,93426.34
2023-04-24T05:37:00.377Z,93360.59
2023-04-24T05:42:06.595Z,93441.59
2023-04-24T05:47:10.294Z,93397.91
2023-04-24T05:52:14.021Z,93435.00
2023-04-24T05:57:18.871Z,93388.53
2023-04-24T06:02:41.474Z,93412.75
2023-04-24T06:07:49.438Z,93359.41
2023-04-24T06:12:53.421Z,93417.72
2023-04-24T06:17:57.570Z,93345.25
2023-04-24T06:23:01.839Z,93404.47
2023-04-24T06:28:05.322Z,93393.28
2023-04-24T06:33:19.364Z,93424.84
2023-04-24T06:38:23.976Z,93356.81
2023-04-24T06:43:27.071Z,93353.44
2023-04-24T06:48:30.905Z,93377.25
2023-04-24T06:53:34.954Z,93368.53
2023-04-24T06:58:38.127Z,93376.84
2023-04-24T07:03:41.882Z,93416.81
2023-04-24T07:08:45.561Z,93336.63
2023-04-24T07:13:49.036Z,93328.09
2023-04-24T07:18:52.725Z,93366.63
2023-04-24T07:23:56.694Z,93403.16
2023-04-24T07:29:01.301Z,93367.19
2023-04-24T07:34:04.920Z,93389.38
2023-04-24T07:39:09.504Z,93351.88
2023-04-24T07:44:12.878Z,93361.66
2023-04-24T07:49:19.162Z,93417.25
2023-04-24T07:54:23.719Z,93402.25
2023-04-24T07:59:27.588Z,93401.31
2023-04-24T08:04:31.460Z,93375.28
2023-04-24T08:09:35.453Z,93340.13
2023-04-24T08:14:39.544Z,93353.66
2023-04-24T08:19:49.600Z,93368.13
2023-04-24T08:24:53.431Z,93390.19
2023-04-24T08:29:56.969Z,93413.19
2023-04-24T08:35:01.121Z,93332.66
2023-04-24T08:40:11.987Z,93391.47
2023-04-24T08:45:16.996Z,93382.38
2023-04-24T08:50:20.488Z,93344.44
2023-04-24T08:55:26.282Z,93419.28
2023-04-24T09:00:30.281Z,93427.81
2023-04-24T09:05:34.962Z,93383.69
2023-04-24T09:10:38.679Z,93360.31
2023-04-24T09:15:42.834Z,93406.53
2023-04-24T09:21:04.941Z,93412.22
2023-04-24T09:26:11.255Z,93448.25
2023-04-24T09:31:19.763Z,93449.69
2023-04-24T09:36:39.150Z,93400.56
2023-04-24T09:41:48.756Z,93391.28
2023-04-24T09:46:58.607Z,93430.41
2023-04-24T09:52:11.255Z,93389.09
2023-04-24T09:57:16.491Z,93453.84
2023-04-24T10:02:21.297Z,93433.03
2023-04-24T10:07:27.558Z,93425.91
2023-04-24T10:12:32.318Z,93340.34
2023-04-24T10:17:37.418Z,93374.06
2023-04-24T10:22:41.676Z,93451.41
2023-04-24T10:27:47.602Z,93445.22
2023-04-24T10:32:51.135Z,93403.91
2023-04-24T10:38:08.032Z,93430.69
2023-04-24T10:43:12.621Z,93404.69
2023-04-24T10:48:17.642Z,93406.09
2023-04-24T10:53:28.071Z,93396.88
2023-04-24T10:58:58.774Z,93406.22
2023-04-24T11:04:04.841Z,93352.78
2023-04-24T11:09:12.494Z,93384.50
2023-04-24T11:14:17.146Z,93330.47
2023-04-24T11:19:22.728Z,93339.41
2023-04-24T11:24:28.506Z,93375.59
2023-04-24T11:29:57.786Z,93385.63
2023-04-24T11:35:10.822Z,93376.34
2023-04-24T11:40:18.989Z,93362.09
2023-04-24T11:45:27.690Z,93297.13
2023-04-24T11:50:32.198Z,93298.81
2023-04-24T11:55:35.838Z,93312.09
2023-04-24T12:00:39.800Z,93341.97
2023-04-24T12:05:43.641Z,93296.69
2023-04-24T12:10:53.097Z,93251.69
2023-04-24T12:15:58.471Z,93348.47
2023-04-24T12:21:23.103Z,93338.69
2023-04-24T12:26:28.962Z,93271.50
2023-04-24T12:31:33.663Z,93256.13
2023-04-24T12:36:37.651Z,93311.75
2023-04-24T12:41:52.571Z,93303.25
2023-04-24T12:46:56.625Z,93291.72
2023-04-24T12:52:00.328Z,93319.31
2023-04-24T12:57:04.671Z,93286.38
2023-04-24T13:02:10.376Z,93284.72
2023-04-24T13:07:15.229Z,93293.72
2023-04-24T13:12:19.330Z,93279.34
2023-04-24T13:17:24.072Z,93309.94
2023-04-24T13:22:28.680Z,93297.56
2023-04-24T13:27:32.849Z,93237.66
2023-04-24T13:32:37.858Z,93295.34
2023-04-24T13:37:41.712Z,93243.31
2023-04-24T13:42:45.697Z,93258.41
2023-04-24T13:47:51.880Z,93250.00
2023-04-24T13:52:55.533Z,93251.00
2023-04-24T13:57:59.056Z,93253.84
2023-04-24T14:03:02.684Z,93241.47
2023-04-24T14:08:07.544Z,93284.44
2023-04-24T14:13:10.717Z,93259.81
2023-04-24T14:18:13.880Z,93250.06
2023-04-24T14:23:18.717Z,93284.84
2023-04-24T14:28:22.948Z,93268.03
2023-04-24T14:33:26.595Z,93281.59
2023-04-24T14:38:31.590Z,93244.03
2023-04-24T14:43:36.491Z,93256.50
2023-04-24T14:48:40.707Z,93289.81
2023-04-24T14:53:44.461Z,93237.56
2023-04-24T14:58:49.256Z,93288.25
2023-04-24T15:03:53.585Z,93283.00
2023-04-24T15:08:57.714Z,93275.63
2023-04-24T15:14:01.404Z,93250.69
2023-04-24T15:19:05.338Z,93302.91
2023-04-24T15:24:08.664Z,93221.94
2023-04-24T15:29:12.793Z,93278.63
2023-04-24T15:34:16.365Z,93224.81
2023-04-24T15:39:24.566Z,93284.03
2023-04-24T15:44:27.910Z,93182.63
2023-04-24T15:49:32.574Z,93276.00
2023-04-24T15:54:36.210Z,93212.94
2023-04-24T15:59:40.610Z,93258.44
2023-04-24T16:04:43.746Z,93235.56
2023-04-24T16:09:47.655Z,93260.28
2023-04-24T16:14:51.069Z,93235.72
2023-04-24T16:19:54.699Z,93236.09
2023-04-24T16:24:58.909Z,93265.78
2023-04-24T16:30:03.283Z,93301.97
2023-04-24T16:35:06.820Z,93247.09
2023-04-24T16:40:11.207Z,93233.81
2023-04-24T16:45:14.508Z,93217.06
2023-04-24T16:50:18.020Z,93239.78
2023-04-24T16:55:21.525Z,93236.63
2023-04-24T17:00:25.711Z,93282.16
2023-04-24T17:05:28.741Z,93229.69
2023-04-24T17:10:32.573Z,93224.81
2023-04-24T17:15:37.294Z,93224.25
2023-04-24T17:20:40.924Z,93203.91
2023-04-24T17:25:44.329Z,93246.22
2023-04-24T17:30:48.501Z,93241.78
2023-04-24T17:35:51.872Z,93275.63
2023-04-24T17:40:55.646Z,93208.38
2023-04-24T17:46:00.308Z,93324.19
2023-04-24T17:51:04.444Z,93289.19
2023-04-24T17:56:08.706Z,93307.72
2023-04-24T18:01:11.781Z,93281.03
2023-04-24T18:06:25.776Z,93345.34
2023-04-24T18:11:36.135Z,93334.19
2023-04-24T18:16:39.692Z,93309.50
2023-04-24T18:21:43.452Z,93274.72
2023-04-24T18:26:46.778Z,93313.88
2023-04-24T18:31:50.518Z,93342.16
2023-04-24T18:36:54.820Z,93277.09
2023-04-24T18:41:59.165Z,93368.78
2023-04-24T18:47:02.606Z,93325.59
2023-04-24T18:57:41.724Z,93383.78
2023-04-24T19:02:45.726Z,93360.72
2023-04-24T19:07:49.452Z,93314.81
2023-04-24T19:12:56.683Z,93365.53
2023-04-24T19:18:02.032Z,93380.13
2023-04-24T19:23:06.726Z,93322.06
2023-04-24T19:28:10.813Z,93390.81
2023-04-24T19:33:16.035Z,93347.66
2023-04-24T19:38:20.450Z,93375.34
2023-04-24T19:43:24.194Z,93419.34
2023-04-24T19:48:32.993Z,93379.44
2023-04-24T19:53:36.410Z,93376.66
2023-04-24T19:58:40.318Z,93398.13
2023-04-24T20:03:45.368Z,93372.81
2023-04-24T20:08:51.133Z,93396.06
2023-04-24T20:13:54.537Z,93420.38
2023-04-24T20:18:58.264Z,93366.94
2023-04-24T20:24:01.952Z,93406.78
2023-04-24T20:29:07.116Z,93398.16
2023-04-24T20:41:30.875Z,93441.22
2023-04-24T20:46:34.746Z,93381.81
2023-04-24T20:51:38.833Z,93401.94
2023-04-24T20:56:43.083Z,93413.97
2023-04-24T21:01:46.927Z,93448.56
2023-04-24T21:06:51.068Z,93372.91
2023-04-24T21:11:57.439Z,93357.94
2023-04-24T21:17:02.173Z,93411.66
2023-04-24T21:22:05.970Z,93412.19
2023-04-24T21:27:10.193Z,93397.34
2023-04-24T21:32:14.146Z,93463.41
2023-04-24T21:37:17.803Z,93377.81
2023-04-24T21:42:21.641Z,93368.03
2023-04-24T21:47:24.759Z,93365.63
2023-04-24T21:52:28.800Z,93386.00
2023-04-24T21:57:32.454Z,93412.59
2023-04-24T22:02:36.489Z,93394.22
2023-04-24T22:07:40.289Z,93377.78
2023-04-24T22:12:45.208Z,93412.56
2023-04-24T22:17:49.981Z,93364.06
2023-04-24T22:22:53.593Z,93352.66
2023-04-24T22:27:57.629Z,93374.88
2023-04-24T22:33:00.722Z,93401.84
2023-04-24T22:38:04.602Z,93450.72
2023-04-24T22:43:08.861Z,93431.13
2023-04-24T22:48:12.639Z,93394.25
2023-04-24T22:53:16.546Z,93372.09
2023-04-24T22:58:20.707Z,93340.28
2023-04-24T23:03:24.714Z,93357.81
2023-04-24T23:08:28.357Z,93420.50
2023-04-24T23:13:32.450Z,93337.44
2023-04-24T23:18:36.059Z,93374.31
2023-04-24T23:23:39.685Z,93315.56
2023-04-24T23:28:42.806Z,93393.03
2023-04-24T23:33:46.761Z,93352.28
2023-04-24T23:38:51.004Z,93352.19
2023-04-24T23:43:55.301Z,93378.78
2023-04-24T23:48:58.272Z,93316.13
2023-04-24T23:54:02.243Z,93319.25
2023-04-24T23:59:05.743Z,93332.06
